Time;durP1;ratioP1;P1;durP2;ratioP2;P2;SDS_P1;SDS_P2;PMS_P1;PMS_P2;Temp;Humidity;BMP_temperature;BMP_pressure;BME280_temperature;BME280_humidity;BME280_pressure;Samples;Min_cycle;Max_cycle;Signal;HPM_P1;HPM_P2
2022/01/20 00:01:23;;;;;;;12.00;8.07;;;;;;;-0.97;74.18;99582.24;1772471;80;21034;-51
2022/01/20 00:03:40;;;;;;;19.33;8.93;;;;;;;-0.97;74.25;99588.41;1766567;80;21096;-52
2022/01/20 00:27:38;;;;;;;14.87;7.75;;;;;;;-0.86;74.68;99558.86;1772182;79;27316;-51
2022/01/20 00:30:29;;;;;;;14.60;7.60;;;;;;;-0.85;74.72;99545.20;1786311;79;21042;-51
2022/01/20 00:33:00;;;;;;;11.13;6.93;;;;;;;-0.86;74.76;99541.67;1778853;79;21101;-51
2022/01/20 00:37:46;;;;;;;12.53;7.83;;;;;;;-0.84;74.85;99539.00;1788226;79;20938;-51
2022/01/20 00:40:13;;;;;;;13.57;8.27;;;;;;;-0.84;74.91;99533.71;1789415;78;20941;-51
2022/01/20 00:42:40;;;;;;;11.83;7.97;;;;;;;-0.83;74.93;99530.19;1781620;79;21175;-51
2022/01/20 00:45:07;;;;;;;13.53;8.10;;;;;;;-0.83;74.95;99519.17;1784013;79;21039;-51
2022/01/20 00:47:37;;;;;;;16.33;7.27;;;;;;;-0.83;74.99;99515.21;1784922;79;20882;-51
2022/01/20 00:50:06;;;;;;;13.43;7.37;;;;;;;-0.80;75.04;99516.53;1788696;79;21001;-51
2022/01/20 00:52:33;;;;;;;11.47;7.03;;;;;;;-0.81;75.07;99505.52;1785925;78;21018;-52
2022/01/20 00:54:59;;;;;;;13.17;7.20;;;;;;;-0.78;75.09;99501.98;1783992;79;21080;-50
2022/01/20 00:57:26;;;;;;;12.07;7.40;;;;;;;-0.79;75.11;99500.23;1756499;79;21052;-49
2022/01/20 00:59:52;;;;;;;13.70;7.97;;;;;;;-0.78;75.14;99504.19;1779461;79;21502;-50
2022/01/20 01:02:18;;;;;;;15.40;6.90;;;;;;;-0.77;75.14;99499.30;1781882;78;21187;-50
2022/01/20 01:04:45;;;;;;;12.63;7.67;;;;;;;-0.76;75.14;99498.86;1780931;79;21072;-51
2022/01/20 01:07:44;;;;;;;9.90;6.47;;;;;;;-0.76;75.20;99495.78;1782639;78;21135;-50
2022/01/20 01:09:55;;;;;;;15.10;8.10;;;;;;;-0.77;75.23;99491.37;1780659;78;21337;-50
2022/01/20 01:12:41;;;;;;;15.23;8.40;;;;;;;-0.75;75.27;99492.69;1782487;79;21100;-50
2022/01/20 01:15:01;;;;;;;16.40;8.40;;;;;;;-0.75;75.26;99486.08;1777513;79;21087;-51
2022/01/20 01:22:29;;;;;;;17.90;9.53;;;;;;;-0.73;75.34;99471.55;1784130;78;21093;-51
2022/01/20 01:24:55;;;;;;;17.70;9.17;;;;;;;-0.72;75.34;99473.30;1768029;80;22585;-52
2022/01/20 01:27:23;;;;;;;20.63;11.07;;;;;;;-0.72;75.39;99462.29;1797285;78;21644;-51
2022/01/20 01:30:05;;;;;;;20.73;10.67;;;;;;;-0.70;75.40;99458.32;1773560;79;21060;-52
2022/01/20 01:32:22;;;;;;;16.03;8.83;;;;;;;-0.69;75.40;99452.14;1766186;80;21053;-54
2022/01/20 01:34:50;;;;;;;21.90;11.90;;;;;;;-0.68;75.44;99450.78;1784504;79;21528;-50
2022/01/20 01:42:51;;;;;;;11.13;7.37;;;;;;;-0.63;75.51;99441.07;1796795;78;27108;-52
2022/01/20 01:45:31;;;;;;;21.80;11.50;;;;;;;-0.67;75.51;99437.13;1763702;78;21107;-52
2022/01/20 01:47:58;;;;;;;15.53;8.17;;;;;;;-0.66;75.53;99432.27;1767222;78;21539;-52
2022/01/20 01:50:25;;;;;;;22.33;11.37;;;;;;;-0.65;75.54;99431.39;1767893;80;21032;-52
2022/01/20 01:52:53;;;;;;;16.73;9.97;;;;;;;-0.65;75.55;99432.71;1763692;79;20982;-52
2022/01/20 01:55:19;;;;;;;23.30;11.63;;;;;;;-0.67;75.56;99431.39;1769897;78;21056;-51
2022/01/20 01:57:45;;;;;;;16.50;8.60;;;;;;;-0.64;75.57;99427.86;1763937;78;21037;-52
2022/01/20 02:00:15;;;;;;;22.23;10.37;;;;;;;-0.64;75.58;99422.13;1765274;78;21345;-51
2022/01/20 02:02:43;;;;;;;18.77;9.63;;;;;;;-0.63;75.56;99423.02;1731991;80;20948;-51
2022/01/20 02:05:14;;;;;;;17.23;9.30;;;;;;;-0.61;75.58;99426.53;1719797;81;20923;-52
2022/01/20 02:18:42;;;;;;;12.00;7.03;;;;;;;-0.59;75.53;99404.89;1709719;81;21707;-51
2022/01/20 02:21:06;;;;;;;12.00;8.33;;;;;;;-0.60;75.54;99396.12;1710647;81;21000;-52
2022/01/20 02:23:33;;;;;;;15.17;8.50;;;;;;;-0.59;75.48;99400.93;1716232;80;20940;-51
2022/01/20 02:26:00;;;;;;;13.73;7.90;;;;;;;-0.59;75.48;99399.16;1713455;81;21154;-51
2022/01/20 02:28:27;;;;;;;14.40;8.20;;;;;;;-0.60;75.53;99394.80;1708741;81;21289;-52
2022/01/20 02:30:54;;;;;;;13.60;7.57;;;;;;;-0.57;75.49;99391.23;1691659;81;20912;-51
2022/01/20 02:33:23;;;;;;;15.80;8.83;;;;;;;-0.60;75.50;99389.51;1704173;81;21397;-51
2022/01/20 02:35:54;;;;;;;13.57;7.87;;;;;;;-0.59;75.48;99376.69;1704110;81;20921;-55
2022/01/20 02:38:39;;;;;;;18.17;8.90;;;;;;;-0.58;75.49;99377.57;1714082;81;21916;-54
2022/01/20 02:46:18;;;;;;;15.97;7.97;;;;;;;-0.57;75.49;99368.75;1667817;82;20121;-52
2022/01/20 02:48:44;;;;;;;19.50;8.30;;;;;;;-0.58;75.51;99366.55;1704722;82;22501;-51
2022/01/20 02:51:11;;;;;;;15.07;8.20;;;;;;;-0.58;75.49;99355.10;1702052;82;21527;-51
2022/01/20 02:53:37;;;;;;;16.33;10.10;;;;;;;-0.58;75.49;99354.66;1711270;81;21366;-52
2022/01/20 02:56:04;;;;;;;12.70;8.60;;;;;;;-0.58;75.49;99348.49;1707005;81;21438;-51
2022/01/20 02:58:31;;;;;;;19.37;9.90;;;;;;;-0.59;75.53;99341.00;1705281;81;21241;-52
2022/01/20 03:00:58;;;;;;;13.07;8.10;;;;;;;-0.58;75.49;99339.23;1703189;81;21381;-51
2022/01/20 03:03:25;;;;;;;16.77;8.57;;;;;;;-0.60;75.50;99344.57;1706869;81;22133;-52
2022/01/20 03:05:51;;;;;;;15.87;8.43;;;;;;;-0.61;75.52;99340.61;1717985;81;21057;-50
2022/01/20 03:08:18;;;;;;;14.90;9.13;;;;;;;-0.64;75.53;99341.52;1709046;81;21081;-51
2022/01/20 03:10:44;;;;;;;16.00;8.00;;;;;;;-0.66;75.55;99331.83;1707415;81;21485;-52
2022/01/20 03:13:11;;;;;;;16.43;9.87;;;;;;;-0.67;75.53;99328.76;1711703;81;21101;-52
2022/01/20 03:15:37;;;;;;;16.07;8.00;;;;;;;-0.68;75.50;99325.71;1703870;83;22742;-52
2022/01/20 03:18:04;;;;;;;15.30;9.03;;;;;;;-0.72;75.48;99328.81;1694192;82;21364;-51
2022/01/20 03:20:32;;;;;;;19.73;9.87;;;;;;;-0.74;75.46;99327.07;1704884;82;21472;-52
2022/01/20 03:22:59;;;;;;;17.80;10.03;;;;;;;-0.78;75.49;99319.19;1697180;82;21118;-51
2022/01/20 03:25:28;;;;;;;17.40;10.73;;;;;;;-0.81;75.53;99304.67;1678450;83;21163;-51
2022/01/20 03:27:56;;;;;;;15.90;10.13;;;;;;;-0.85;75.56;99305.58;1697844;82;21174;-52
2022/01/20 03:30:23;;;;;;;22.10;9.30;;;;;;;-0.87;75.61;99306.51;1715723;81;20960;-51
2022/01/20 03:32:49;;;;;;;20.43;10.23;;;;;;;-0.91;75.67;99300.81;1709970;81;21085;-51
2022/01/20 03:35:16;;;;;;;18.03;11.17;;;;;;;-0.93;75.69;99290.69;1705010;81;21118;-51
2022/01/20 03:37:44;;;;;;;19.90;11.70;;;;;;;-0.96;75.71;99288.10;1703668;83;21541;-50
2022/01/20 03:40:11;;;;;;;19.63;10.13;;;;;;;-0.99;75.76;99289.00;1710407;81;21639;-51
2022/01/20 03:42:38;;;;;;;13.33;8.60;;;;;;;-1.01;75.80;99293.41;1694574;83;21079;-51
2022/01/20 03:45:07;;;;;;;21.87;10.90;;;;;;;-1.03;75.86;99289.94;1690486;81;21099;-51
2022/01/20 03:47:33;;;;;;;18.63;10.57;;;;;;;-1.05;75.89;99291.70;1692526;81;21091;-51
2022/01/20 03:52:27;;;;;;;18.73;11.03;;;;;;;-1.09;75.97;99282.48;1694704;81;21648;-51
2022/01/20 03:54:53;;;;;;;22.67;11.93;;;;;;;-1.12;76.03;99282.09;1693631;83;21654;-51
2022/01/20 03:57:26;;;;;;;19.13;10.87;;;;;;;-1.14;76.06;99271.98;1693826;81;21162;-52
2022/01/20 03:59:53;;;;;;;20.87;11.30;;;;;;;-1.14;76.08;99278.58;1693159;82;21857;-52
2022/01/20 04:02:24;;;;;;;17.83;10.50;;;;;;;-1.14;76.09;99279.90;1686947;81;21078;-55
2022/01/20 04:04:54;;;;;;;16.17;10.03;;;;;;;-1.15;76.10;99271.54;1688240;81;21557;-51
2022/01/20 04:07:21;;;;;;;17.23;10.17;;;;;;;-1.18;76.11;99257.91;1689567;81;21325;-52
2022/01/20 04:09:48;;;;;;;14.83;9.53;;;;;;;-1.20;76.12;99265.44;1691517;81;21198;-52
2022/01/20 04:12:14;;;;;;;19.23;10.13;;;;;;;-1.22;76.16;99261.92;1698707;81;21631;-52
2022/01/20 04:14:47;;;;;;;18.97;10.50;;;;;;;-1.24;76.15;99256.66;1695275;81;21110;-52
2022/01/20 04:17:15;;;;;;;16.53;9.83;;;;;;;-1.26;76.19;99251.82;1694410;81;23313;-53
2022/01/20 04:19:37;;;;;;;15.70;8.87;;;;;;;-1.27;76.22;99243.47;1691995;82;21079;-51
2022/01/20 04:22:04;;;;;;;16.30;8.90;;;;;;;-1.27;76.22;99242.59;1694193;82;21087;-53
2022/01/20 04:24:31;;;;;;;13.57;8.10;;;;;;;-1.30;76.25;99237.36;1713833;81;20929;-53
2022/01/20 04:26:58;;;;;;;14.90;8.43;;;;;;;-1.33;76.28;99235.61;1754685;79;20951;-55
2022/01/20 04:29:25;;;;;;;14.33;8.07;;;;;;;-1.34;76.28;99239.58;1752125;79;21109;-54
2022/01/20 04:31:52;;;;;;;14.40;7.80;;;;;;;-1.35;76.28;99233.42;1746662;79;21245;-52
2022/01/20 04:34:19;;;;;;;15.70;8.33;;;;;;;-1.35;76.31;99232.54;1742603;79;21617;-55
2022/01/20 04:36:48;;;;;;;10.87;7.27;;;;;;;-1.36;76.27;99234.30;1752508;79;20938;-54
2022/01/20 04:39:20;;;;;;;14.90;9.43;;;;;;;-1.37;76.24;99230.38;1751728;79;20923;-52
2022/01/20 04:41:47;;;;;;;12.10;7.80;;;;;;;-1.39;76.25;99234.34;1753079;80;21417;-54
2022/01/20 04:44:30;;;;;;;15.50;6.80;;;;;;;-1.41;76.28;99218.96;1757608;80;22395;-51
2022/01/20 04:57:25;;;;;;;14.85;8.38;;;;;;;-1.50;76.21;99215.52;1754858;79;21148;-51
2022/01/20 04:59:53;;;;;;;13.80;8.43;;;;;;;-1.54;76.21;99208.97;1754919;80;21384;-52
2022/01/20 05:02:20;;;;;;;12.33;7.17;;;;;;;-1.55;76.21;99208.98;1755347;79;21179;-52
2022/01/20 05:04:54;;;;;;;;;;;;;;;-1.56;76.22;99195.34;1762231;79;21562;-51
2022/01/20 05:07:25;;;;;;;11.30;7.13;;;;;;;-1.59;76.22;99195.36;1740745;79;21129;-52
2022/01/20 05:09:52;;;;;;;17.03;7.97;;;;;;;-1.64;76.22;99194.09;1754346;80;21068;-50
2022/01/20 05:12:24;;;;;;;14.33;7.27;;;;;;;-1.66;76.24;99193.66;1719262;80;21043;-50
2022/01/20 05:14:46;;;;;;;11.57;6.77;;;;;;;-1.71;76.25;99177.89;1696504;82;21502;-49
2022/01/20 05:17:13;;;;;;;17.27;6.80;;;;;;;-1.73;76.28;99184.93;1703575;82;20969;-50
2022/01/20 05:19:39;;;;;;;12.63;5.87;;;;;;;-1.75;76.28;99186.70;1698980;82;21082;-52
2022/01/20 05:22:05;;;;;;;11.87;7.33;;;;;;;-1.75;76.28;99187.14;1707378;82;20940;-51
2022/01/20 05:24:37;;;;;;;15.73;6.87;;;;;;;-1.76;76.22;99185.39;1697108;83;21406;-50
2022/01/20 05:27:06;;;;;;;11.37;5.97;;;;;;;-1.77;76.20;99187.15;1700394;83;21003;-51
2022/01/20 05:29:32;;;;;;;13.07;7.20;;;;;;;-1.78;76.19;99188.03;1699067;83;20966;-51
2022/01/20 05:31:59;;;;;;;15.57;7.70;;;;;;;-1.79;76.15;99173.56;1703045;83;21113;-50
2022/01/20 05:34:25;;;;;;;12.37;6.77;;;;;;;-1.81;76.10;99176.64;1704860;83;20968;-50
2022/01/20 05:36:53;;;;;;;19.07;7.67;;;;;;;-1.83;76.07;99176.66;1701305;82;21053;-49
2022/01/20 05:39:19;;;;;;;13.70;7.13;;;;;;;-1.87;76.05;99165.67;1694313;82;21370;-50
2022/01/20 05:41:46;;;;;;;13.97;7.10;;;;;;;-1.88;76.04;99172.31;1690928;83;21103;-54
2022/01/20 05:44:15;;;;;;;12.47;7.07;;;;;;;-1.90;76.03;99173.64;1668341;83;21176;-50
2022/01/20 05:46:47;;;;;;;13.13;6.03;;;;;;;-1.92;76.05;99177.59;1671476;83;21119;-53
2022/01/20 05:49:11;;;;;;;15.60;7.33;;;;;;;-1.93;75.99;99185.52;1679697;83;22271;-50
2022/01/20 05:51:43;;;;;;;14.10;6.40;;;;;;;-1.95;75.96;99185.52;1670368;83;21540;-52
2022/01/20 05:54:10;;;;;;;13.67;7.57;;;;;;;-1.99;75.97;99181.17;1672744;83;21568;-50
2022/01/20 05:56:36;;;;;;;13.77;7.20;;;;;;;-1.99;75.94;99173.70;1732978;80;21555;-51
2022/01/20 05:59:03;;;;;;;12.97;7.37;;;;;;;-2.02;75.91;99166.68;1729571;80;21118;-51
2022/01/20 06:01:32;;;;;;;15.13;6.93;;;;;;;-2.03;75.89;99170.20;1733253;80;21039;-51
2022/01/20 06:03:59;;;;;;;14.67;6.80;;;;;;;-2.07;75.87;99159.26;1733469;80;21042;-53
2022/01/20 06:06:26;;;;;;;9.60;6.33;;;;;;;-2.06;75.86;99161.45;1710237;80;21103;-53
2022/01/20 06:08:53;;;;;;;15.87;7.30;;;;;;;-2.06;75.83;99158.81;1731405;80;21587;-52
2022/01/20 06:11:20;;;;;;;16.57;7.67;;;;;;;-2.06;75.73;99151.78;1728954;80;21055;-51
2022/01/20 06:13:47;;;;;;;12.07;6.23;;;;;;;-2.05;75.64;99153.98;1729194;80;21110;-50
2022/01/20 06:16:15;;;;;;;16.47;6.80;;;;;;;-2.06;75.59;99147.83;1743898;80;21086;-52
2022/01/20 06:18:41;;;;;;;10.87;4.77;;;;;;;-2.06;75.53;99141.23;1728731;80;21343;-50
2022/01/20 06:21:08;;;;;;;12.13;6.70;;;;;;;-2.05;75.40;99138.16;1730158;80;21805;-51
2022/01/20 06:23:35;;;;;;;11.97;6.93;;;;;;;-2.06;75.32;99137.28;1726677;80;21085;-51
2022/01/20 06:26:05;;;;;;;13.73;6.50;;;;;;;-2.04;75.24;99143.86;1730357;80;21033;-51
2022/01/20 06:28:32;;;;;;;11.20;5.73;;;;;;;-2.04;75.19;99143.39;1733451;80;21726;-48
2022/01/20 06:30:59;;;;;;;10.53;5.87;;;;;;;-2.01;75.07;99142.50;1728332;80;22332;-50
2022/01/20 06:33:26;;;;;;;12.23;5.33;;;;;;;-1.99;74.93;99146.01;1730042;80;21119;-49
2022/01/20 06:35:54;;;;;;;16.20;5.57;;;;;;;-1.97;74.75;99149.08;1735714;80;21622;-54
2022/01/20 06:38:21;;;;;;;14.97;6.20;;;;;;;-1.95;74.66;99149.03;1728135;80;21032;-51
2022/01/20 06:40:47;;;;;;;8.27;4.07;;;;;;;-1.96;74.52;99145.52;1702714;80;21063;-50
2022/01/20 06:43:13;;;;;;;12.17;6.70;;;;;;;-1.95;74.42;99143.32;1717361;80;21567;-50
2022/01/20 06:45:40;;;;;;;14.20;5.73;;;;;;;-1.94;74.36;99123.97;1751218;79;21516;-48
2022/01/20 06:48:09;;;;;;;11.87;6.20;;;;;;;-1.91;74.22;99109.45;1758114;80;21010;-51
2022/01/20 06:50:37;;;;;;;11.63;4.70;;;;;;;-1.89;74.07;99104.17;1762323;79;21065;-49
2022/01/20 06:53:04;;;;;;;11.73;6.47;;;;;;;-1.89;73.90;99100.22;1758100;79;21045;-49
2022/01/20 06:55:31;;;;;;;14.53;6.93;;;;;;;-1.89;73.79;99092.30;1760144;80;21520;-49
2022/01/20 06:57:57;;;;;;;14.87;6.67;;;;;;;-1.89;73.65;99100.22;1760804;79;21493;-50
2022/01/20 07:00:24;;;;;;;14.47;6.67;;;;;;;-1.88;73.62;99093.17;1756678;79;21615;-50
2022/01/20 07:02:51;;;;;;;14.50;6.77;;;;;;;-1.85;73.49;99094.00;1764677;79;21512;-51
2022/01/20 07:05:20;;;;;;;13.30;6.77;;;;;;;-1.82;73.39;99086.52;1770489;79;21636;-51
2022/01/20 07:07:47;;;;;;;21.17;8.00;;;;;;;-1.79;73.32;99091.33;1765917;79;20985;-50
2022/01/20 07:10:17;;;;;;;11.20;5.43;;;;;;;-1.75;73.17;99099.63;1759162;79;22251;-50
2022/01/20 07:12:48;;;;;;;15.57;6.07;;;;;;;-1.71;72.99;99092.58;1762151;79;21092;-51
2022/01/20 07:15:15;;;;;;;11.90;5.93;;;;;;;-1.68;72.80;99097.36;1758632;79;21097;-50
2022/01/20 07:17:42;;;;;;;12.20;5.30;;;;;;;-1.63;72.63;99088.97;1760160;79;21104;-51
2022/01/20 07:20:11;;;;;;;12.13;5.43;;;;;;;-1.60;72.42;99095.52;1757518;79;21057;-48
2022/01/20 07:22:39;;;;;;;8.90;4.73;;;;;;;-1.55;72.38;99088.89;1760106;79;21891;-49
2022/01/20 07:25:07;;;;;;;11.60;6.20;;;;;;;-1.49;72.05;99083.53;1732834;80;21341;-51
2022/01/20 07:27:38;;;;;;;12.70;6.80;;;;;;;-1.45;71.86;99072.52;1760016;80;20930;-51
2022/01/20 07:30:06;;;;;;;10.17;5.60;;;;;;;-1.39;71.77;99080.36;1768868;79;21065;-50
2022/01/20 07:32:33;;;;;;;12.63;5.57;;;;;;;-1.35;71.61;99080.29;1760510;79;21408;-51
2022/01/20 07:35:00;;;;;;;8.90;5.73;;;;;;;-1.27;71.36;99097.36;1695643;82;21106;-51
2022/01/20 07:37:26;;;;;;;16.33;6.83;;;;;;;-1.23;71.19;99097.33;1763237;79;21036;-51
2022/01/20 07:39:53;;;;;;;13.97;6.23;;;;;;;-1.16;71.00;99096.80;1759136;80;21173;-51
2022/01/20 07:42:19;;;;;;;10.63;5.67;;;;;;;-1.09;70.80;99095.83;1761664;79;21594;-50
2022/01/20 07:44:56;;;;;;;10.97;6.57;;;;;;;-1.03;70.52;99094.91;1752911;79;21379;-50
2022/01/20 07:47:24;;;;;;;9.63;4.60;;;;;;;-0.97;70.31;99102.30;1761051;79;21097;-50
2022/01/20 07:49:52;;;;;;;8.57;5.50;;;;;;;-0.92;69.90;99095.17;1760515;79;21010;-50
2022/01/20 07:52:20;;;;;;;10.43;4.13;;;;;;;-0.85;69.66;99080.98;1761406;79;20918;-51
2022/01/20 07:54:46;;;;;;;7.73;4.27;;;;;;;-0.79;69.43;99073.00;1764445;79;20974;-50
2022/01/20 07:57:13;;;;;;;11.20;4.70;;;;;;;-0.71;69.07;99072.02;1763965;79;20946;-50
2022/01/20 07:59:39;;;;;;;8.77;4.77;;;;;;;-0.67;68.80;99066.65;1760517;80;21030;-49
2022/01/20 08:02:07;;;;;;;11.17;4.77;;;;;;;-0.62;68.32;99063.95;1761980;79;21038;-50
2022/01/20 08:04:33;;;;;;;11.33;5.77;;;;;;;-0.57;68.18;99056.82;1758608;79;20982;-49
2022/01/20 08:07:02;;;;;;;8.83;4.43;;;;;;;-0.50;67.96;99062.44;1765565;79;20946;-49
2022/01/20 08:09:28;;;;;;;12.10;5.60;;;;;;;-0.44;67.72;99054.44;1763136;79;20979;-50
2022/01/20 08:11:57;;;;;;;11.50;4.83;;;;;;;-0.37;67.55;99052.56;1759716;79;21480;-51
2022/01/20 08:14:45;;;;;;;12.50;4.40;;;;;;;-0.32;67.38;99046.30;1763875;79;20936;-50
2022/01/20 08:17:13;;;;;;;12.67;4.83;;;;;;;-0.26;67.15;99047.55;1759141;79;20954;-50
2022/01/20 08:19:42;;;;;;;12.77;5.77;;;;;;;-0.21;66.79;99048.77;1760714;79;21437;-51
2022/01/20 08:22:08;;;;;;;12.00;5.30;;;;;;;-0.19;66.62;99057.56;1704331;82;21559;-51
2022/01/20 08:24:35;;;;;;;10.97;5.17;;;;;;;-0.19;66.56;99047.86;1712340;81;21870;-50
2022/01/20 08:27:02;;;;;;;10.57;5.50;;;;;;;-0.15;66.40;99057.48;1703888;83;21639;-51
2022/01/20 08:29:28;;;;;;;11.03;5.40;;;;;;;-0.11;66.36;99054.34;1706439;83;20991;-51
2022/01/20 08:31:56;;;;;;;10.73;5.57;;;;;;;-0.06;66.15;99059.09;1706919;83;20964;-52
2022/01/20 08:34:27;;;;;;;14.13;6.17;;;;;;;-0.01;66.09;99058.14;1708657;81;21572;-50
2022/01/20 08:37:02;;;;;;;9.53;4.27;;;;;;;0.07;65.98;99061.10;1701652;83;21113;-52
2022/01/20 08:42:01;;;;;;;17.40;6.07;;;;;;;0.20;65.54;99053.36;1706512;81;21054;-51
2022/01/20 08:44:28;;;;;;;10.90;5.97;;;;;;;0.25;65.17;99043.13;1703522;81;20992;-52
2022/01/20 08:46:57;;;;;;;10.57;5.70;;;;;;;0.29;64.87;99042.16;1696961;83;20995;-52
2022/01/20 08:49:23;;;;;;;9.93;5.13;;;;;;;0.35;64.72;99041.16;1694736;83;21099;-52
2022/01/20 08:51:51;;;;;;;12.97;5.93;;;;;;;0.42;64.53;99039.30;1691292;83;21185;-52
2022/01/20 08:54:20;;;;;;;12.03;5.37;;;;;;;0.48;64.42;99027.26;1693086;83;21518;-52
2022/01/20 08:56:50;;;;;;;14.27;5.43;;;;;;;0.55;64.20;99018.28;1695829;83;21109;-52
2022/01/20 08:59:17;;;;;;;13.30;6.87;;;;;;;0.60;63.99;99018.60;1685155;83;21581;-53
2022/01/20 09:01:43;;;;;;;13.67;7.20;;;;;;;0.66;63.63;99014.53;1696600;83;22417;-53
2022/01/20 09:04:10;;;;;;;12.63;6.37;;;;;;;0.74;63.34;99016.57;1691405;83;21071;-53
2022/01/20 09:06:38;;;;;;;11.07;5.97;;;;;;;0.81;63.16;99016.44;1697297;82;21373;-53
2022/01/20 09:09:07;;;;;;;14.60;5.83;;;;;;;0.88;62.99;99003.02;1685062;83;20942;-53
2022/01/20 09:11:38;;;;;;;10.53;6.13;;;;;;;0.97;62.57;98996.20;1690249;82;21026;-53
2022/01/20 09:16:50;;;;;;;11.47;6.47;;;;;;;1.08;62.08;98986.70;1692536;83;20923;-53
2022/01/20 09:19:21;;;;;;;11.27;5.23;;;;;;;1.13;61.81;98972.87;1676575;84;20992;-53
2022/01/20 09:21:52;;;;;;;10.90;6.30;;;;;;;1.18;61.50;98968.36;1696806;82;21100;-53
2022/01/20 09:24:18;;;;;;;13.13;5.30;;;;;;;1.20;61.26;98971.83;1694574;82;21111;-53
2022/01/20 09:26:45;;;;;;;18.17;6.73;;;;;;;1.24;61.14;98964.23;1689596;83;21124;-53
2022/01/20 09:29:12;;;;;;;29.40;5.93;;;;;;;1.31;61.12;98967.61;1684473;83;21188;-54
2022/01/20 09:31:39;;;;;;;11.70;6.87;;;;;;;1.37;60.81;98966.13;1692411;83;21069;-53
2022/01/20 09:34:07;;;;;;;11.60;6.50;;;;;;;1.40;60.77;98953.68;1702246;83;20947;-54
2022/01/20 09:36:36;;;;;;;11.70;6.40;;;;;;;1.44;60.56;98950.06;1696157;83;21022;-53
2022/01/20 09:39:03;;;;;;;12.83;6.70;;;;;;;1.48;60.30;98942.43;1690259;83;21920;-54
2022/01/20 09:41:47;;;;;;;16.32;7.42;;;;;;;1.51;60.12;98930.43;1692653;83;20987;-53
2022/01/20 09:44:14;;;;;;;16.07;7.33;;;;;;;1.53;60.04;98918.46;1669749;83;21076;-54
2022/01/20 09:46:44;;;;;;;12.00;5.93;;;;;;;1.55;59.97;98915.30;1710539;82;21094;-54
2022/01/20 09:49:29;;;;;;;13.50;7.13;;;;;;;1.58;59.82;98915.22;1760649;78;22453;-52
2022/01/20 09:51:57;;;;;;;11.50;7.20;;;;;;;1.58;59.60;98905.94;1757243;80;21178;-53
2022/01/20 09:54:37;;;;;;;11.17;6.33;;;;;;;1.62;59.52;98905.39;1754796;78;21057;-53
2022/01/20 09:57:05;;;;;;;16.87;7.20;;;;;;;1.64;59.49;98902.25;1747300;80;21077;-53
2022/01/20 09:59:32;;;;;;;11.27;6.13;;;;;;;1.67;59.39;98907.48;1757435;78;21116;-53
2022/01/20 10:01:58;;;;;;;10.93;6.73;;;;;;;1.70;59.27;98899.46;1761059;78;21705;-52
2022/01/20 10:04:38;;;;;;;14.00;7.13;;;;;;;1.73;59.16;98893.59;1759816;80;21156;-53
2022/01/20 10:07:09;;;;;;;15.87;7.17;;;;;;;1.75;59.02;98881.17;1758390;78;21100;-53
2022/01/20 10:09:41;;;;;;;11.23;6.13;;;;;;;1.79;58.94;98884.14;1761232;78;20912;-53
2022/01/20 10:12:31;;;;;;;13.97;6.73;;;;;;;1.82;58.96;98877.44;1761520;79;20987;-53
2022/01/20 10:14:58;;;;;;;12.93;7.10;;;;;;;1.87;58.93;98874.19;1761921;79;20883;-52
2022/01/20 10:17:38;;;;;;;11.10;5.70;;;;;;;1.93;58.92;98878.94;1762805;78;21107;-53
2022/01/20 10:20:07;;;;;;;10.93;7.03;;;;;;;1.99;58.81;98869.47;1764379;79;21427;-53
2022/01/20 10:22:36;;;;;;;14.23;7.63;;;;;;;2.05;58.71;98869.28;1760397;78;21423;-52
2022/01/20 10:25:08;;;;;;;11.40;6.23;;;;;;;2.08;58.67;98863.45;1760226;79;20906;-51
2022/01/20 10:27:55;;;;;;;13.83;6.70;;;;;;;2.11;58.68;98859.39;1764059;79;20936;-51
2022/01/20 10:30:25;;;;;;;12.93;7.00;;;;;;;2.16;58.36;98849.95;1738808;80;21078;-52
2022/01/20 10:32:56;;;;;;;13.60;6.97;;;;;;;2.16;58.22;98843.31;1769571;79;21005;-53
2022/01/20 10:35:31;;;;;;;12.77;6.87;;;;;;;2.18;58.20;98844.15;1763440;79;21490;-52
2022/01/20 10:38:16;;;;;;;14.77;6.93;;;;;;;2.18;58.32;98838.84;1764364;79;21050;-53
2022/01/20 10:40:54;;;;;;;12.33;7.07;;;;;;;2.19;58.29;98830.84;1761244;78;21033;-52
2022/01/20 10:43:26;;;;;;;13.97;6.87;;;;;;;2.22;58.27;98817.45;1741354;80;21128;-52
2022/01/20 10:46:06;;;;;;;16.57;6.67;;;;;;;2.21;58.09;98814.38;1754525;79;21315;-52
2022/01/20 10:48:32;;;;;;;13.47;7.30;;;;;;;2.23;57.98;98812.55;1738172;80;20989;-53
2022/01/20 10:50:59;;;;;;;16.07;8.07;;;;;;;2.20;58.03;98807.36;1755708;79;20994;-52
2022/01/20 10:56:06;;;;;;;16.63;8.00;;;;;;;2.27;58.24;98788.99;1857000;74;26647;-54
2022/01/20 10:58:33;;;;;;;10.40;7.13;;;;;;;2.25;58.23;98784.17;1795588;77;21028;-54
2022/01/20 11:01:03;;;;;;;11.80;6.23;;;;;;;2.26;58.09;98781.06;1794058;77;22344;-54
2022/01/20 11:03:33;;;;;;;19.00;9.03;;;;;;;2.26;58.09;98772.64;1794713;77;20918;-54
2022/01/20 11:06:01;;;;;;;11.50;7.53;;;;;;;2.27;58.14;98783.69;1796590;77;22309;-54
2022/01/20 11:08:39;;;;;;;14.38;7.47;;;;;;;2.30;58.28;98781.86;1787801;77;20933;-54
2022/01/20 11:11:06;;;;;;;12.60;6.57;;;;;;;2.31;58.19;98780.45;1798405;77;20875;-54
2022/01/20 11:13:38;;;;;;;12.93;6.53;;;;;;;2.32;58.31;98773.36;1797130;77;20878;-54
2022/01/20 11:16:04;;;;;;;10.67;6.53;;;;;;;2.34;58.19;98773.73;1799307;77;20887;-55
2022/01/20 11:18:32;;;;;;;15.37;5.30;;;;;;;2.38;58.25;98768.76;1791600;77;20902;-55
2022/01/20 11:21:01;;;;;;;12.00;7.07;;;;;;;2.39;58.16;98767.81;1800355;77;20906;-54
2022/01/20 11:23:40;;;;;;;15.20;7.27;;;;;;;2.41;58.35;98773.08;1803170;77;20878;-54
2022/01/20 11:26:17;;;;;;;12.13;6.47;;;;;;;2.40;58.46;98770.88;1756101;79;21931;-56
2022/01/20 11:28:59;;;;;;;16.60;6.23;;;;;;;2.42;58.53;98768.19;1784837;77;21588;-54
2022/01/20 11:31:44;;;;;;;10.23;6.10;;;;;;;2.44;58.64;98765.90;1794018;77;21732;-53
2022/01/20 11:34:16;;;;;;;8.00;5.47;;;;;;;2.46;58.76;98756.56;1760570;77;21111;-52
2022/01/20 11:36:43;;;;;;;12.03;6.03;;;;;;;2.48;58.77;98760.02;1790656;77;21107;-53
2022/01/20 11:39:09;;;;;;;13.57;6.97;;;;;;;2.48;58.80;98752.05;1789697;77;21112;-53
2022/01/20 11:41:47;;;;;;;12.47;6.17;;;;;;;2.49;58.89;98754.66;1801202;77;20934;-53
2022/01/20 11:44:18;;;;;;;12.33;6.13;;;;;;;2.53;58.93;98755.45;1805580;77;21026;-56
2022/01/20 11:46:46;;;;;;;14.50;7.30;;;;;;;2.57;58.98;98746.44;1792409;77;21069;-55
2022/01/20 11:49:15;;;;;;;16.23;7.57;;;;;;;2.62;59.00;98753.83;1794414;77;21018;-56
2022/01/20 11:51:54;;;;;;;8.73;5.03;;;;;;;2.63;59.02;98740.50;1787172;77;21277;-56
2022/01/20 11:54:30;;;;;;;11.53;4.83;;;;;;;2.65;58.67;98740.42;1795370;77;21063;-55
2022/01/20 11:57:16;;;;;;;10.67;5.63;;;;;;;2.65;58.76;98740.42;1804164;77;21075;-56
2022/01/20 12:02:33;;;;;;;10.20;6.27;;;;;;;2.70;58.89;98733.19;1865139;75;26490;-54
2022/01/20 12:05:02;;;;;;;9.17;5.23;;;;;;;2.66;58.93;98732.41;1843942;77;21612;-55
2022/01/20 12:07:32;;;;;;;8.97;5.07;;;;;;;2.68;58.94;98727.50;1837209;77;21119;-57
2022/01/20 12:10:14;;;;;;;7.43;4.20;;;;;;;2.68;59.01;98721.73;1841706;77;22406;-58
2022/01/20 12:12:41;;;;;;;7.83;5.33;;;;;;;2.70;59.07;98716.38;1844004;76;21376;-57
2022/01/20 12:15:22;;;;;;;11.00;5.90;;;;;;;2.69;59.09;98707.53;1842154;77;21043;-57
2022/01/20 12:17:55;;;;;;;11.20;5.70;;;;;;;2.70;59.17;98699.10;1845764;76;20988;-57
2022/01/20 12:20:24;;;;;;;9.97;5.67;;;;;;;2.70;59.19;98693.79;1847926;77;21126;-56
2022/01/20 12:22:51;;;;;;;11.10;5.53;;;;;;;2.70;59.22;98695.13;1833483;77;21018;-56
2022/01/20 12:25:27;;;;;;;12.37;7.07;;;;;;;2.69;59.20;98684.95;1845667;77;22349;-57
2022/01/20 12:28:10;;;;;;;11.73;5.23;;;;;;;2.65;59.27;98684.63;1844837;77;21511;-57
2022/01/20 12:30:40;;;;;;;12.77;6.67;;;;;;;2.63;59.44;98695.33;1839659;77;21105;-56
2022/01/20 12:33:11;;;;;;;14.40;5.87;;;;;;;2.65;59.54;98681.97;1843365;77;21463;-57
2022/01/20 12:35:48;;;;;;;11.97;6.00;;;;;;;2.66;59.57;98681.05;1839531;77;21000;-57
2022/01/20 12:38:38;;;;;;;10.37;5.30;;;;;;;2.69;59.40;98684.08;1844527;76;20949;-56
2022/01/20 12:41:17;;;;;;;10.97;5.33;;;;;;;2.68;59.36;98688.52;1847519;77;20860;-56
2022/01/20 12:44:04;;;;;;;11.97;6.40;;;;;;;2.67;59.38;98693.42;1848947;76;20933;-57
2022/01/20 12:46:28;;;;;;;10.47;5.10;;;;;;;2.65;59.42;98685.95;1799621;78;21127;-57
2022/01/20 12:49:12;;;;;;;10.60;5.50;;;;;;;2.63;59.58;98695.33;1807365;78;21049;-56
2022/01/20 12:51:46;;;;;;;12.33;7.12;;;;;;;2.60;59.65;98685.25;1810267;77;20973;-57
2022/01/20 12:54:26;;;;;;;11.60;5.77;;;;;;;2.58;59.74;98681.77;1805264;78;21099;-57